sensor_id;sensor_type;location;lat;lon;timestamp;pressure;altitude;pressure_sealevel;temperature;humidity
59825;BME280;45703;50.898;6.054;2023-04-10T00:01:31;100743.94;;;9.08;69.64
59825;BME280;45703;50.898;6.054;2023-04-10T00:04:00;100736.53;;;9.04;69.85
59825;BME280;45703;50.898;6.054;2023-04-10T00:06:25;100733.88;;;9.04;69.38
59825;BME280;45703;50.898;6.054;2023-04-10T00:08:52;100734.72;;;9.04;69.91
59825;BME280;45703;50.898;6.054;2023-04-10T00:11:18;100729.78;;;9.01;69.95
59825;BME280;45703;50.898;6.054;2023-04-10T00:13:43;100728.75;;;9.02;69.91
59825;BME280;45703;50.898;6.054;2023-04-10T00:16:09;100732.63;;;9.00;69.86
59825;BME280;45703;50.898;6.054;2023-04-10T00:18:35;100724.03;;;8.98;70.15
59825;BME280;45703;50.898;6.054;2023-04-10T00:21:02;100709.25;;;8.89;70.36
59825;BME280;45703;50.898;6.054;2023-04-10T00:23:27;100714.78;;;8.94;70.18
59825;BME280;45703;50.898;6.054;2023-04-10T00:25:56;100725.63;;;8.92;70.15
59825;BME280;45703;50.898;6.054;2023-04-10T00:28:21;100722.97;;;8.92;70.17
59825;BME280;45703;50.898;6.054;2023-04-10T00:30:47;100712.09;;;8.87;70.31
59825;BME280;45703;50.898;6.054;2023-04-10T00:33:12;100723.34;;;8.89;70.66
59825;BME280;45703;50.898;6.054;2023-04-10T00:35:38;100711.06;;;8.88;70.55
59825;BME280;45703;50.898;6.054;2023-04-10T00:38:03;100703.47;;;8.85;70.90
59825;BME280;45703;50.898;6.054;2023-04-10T00:40:29;100698.16;;;8.85;71.02
59825;BME280;45703;50.898;6.054;2023-04-10T00:42:54;100696.50;;;8.84;71.07
59825;BME280;45703;50.898;6.054;2023-04-10T00:45:20;100687.50;;;8.79;70.88
59825;BME280;45703;50.898;6.054;2023-04-10T00:47:45;100679.69;;;8.77;70.59
59825;BME280;45703;50.898;6.054;2023-04-10T00:50:11;100676.41;;;8.75;71.23
59825;BME280;45703;50.898;6.054;2023-04-10T00:52:37;100675.78;;;8.73;71.55
59825;BME280;45703;50.898;6.054;2023-04-10T00:55:03;100664.91;;;8.68;71.65
59825;BME280;45703;50.898;6.054;2023-04-10T00:57:28;100660.00;;;8.65;72.06
59825;BME280;45703;50.898;6.054;2023-04-10T00:59:54;100665.72;;;8.62;72.12
59825;BME280;45703;50.898;6.054;2023-04-10T01:02:20;100659.97;;;8.59;72.78
59825;BME280;45703;50.898;6.054;2023-04-10T01:04:45;100653.38;;;8.55;72.33
59825;BME280;45703;50.898;6.054;2023-04-10T01:07:34;100649.31;;;8.53;72.69
59825;BME280;45703;50.898;6.054;2023-04-10T01:12:52;100641.91;;;8.48;72.16
59825;BME280;45703;50.898;6.054;2023-04-10T01:15:21;100644.78;;;8.47;72.06
59825;BME280;45703;50.898;6.054;2023-04-10T01:20:37;100639.00;;;8.43;72.07
59825;BME280;45703;50.898;6.054;2023-04-10T01:26:05;100628.56;;;8.42;71.93
59825;BME280;45703;50.898;6.054;2023-04-10T01:31:19;100630.22;;;8.43;72.14
59825;BME280;45703;50.898;6.054;2023-04-10T01:33:53;100616.47;;;8.39;72.54
59825;BME280;45703;50.898;6.054;2023-04-10T01:36:23;100619.31;;;8.38;72.31
59825;BME280;45703;50.898;6.054;2023-04-10T01:38:52;100615.25;;;8.35;72.26
59825;BME280;45703;50.898;6.054;2023-04-10T01:41:19;100620.13;;;8.32;72.53
59825;BME280;45703;50.898;6.054;2023-04-10T01:43:48;100627.28;;;8.31;72.73
59825;BME280;45703;50.898;6.054;2023-04-10T01:46:17;100617.84;;;8.29;72.66
59825;BME280;45703;50.898;6.054;2023-04-10T01:48:44;100611.91;;;8.20;72.57
59825;BME280;45703;50.898;6.054;2023-04-10T01:51:10;100618.66;;;8.23;72.08
59825;BME280;45703;50.898;6.054;2023-04-10T01:53:37;100608.63;;;8.18;72.10
59825;BME280;45703;50.898;6.054;2023-04-10T01:56:03;100616.38;;;8.20;72.16
59825;BME280;45703;50.898;6.054;2023-04-10T01:58:29;100616.38;;;8.20;72.29
59825;BME280;45703;50.898;6.054;2023-04-10T02:00:55;100626.22;;;8.19;72.37
59825;BME280;45703;50.898;6.054;2023-04-10T02:03:20;100631.53;;;8.19;72.71
59825;BME280;45703;50.898;6.054;2023-04-10T02:08:30;100618.16;;;8.13;72.44
59825;BME280;45703;50.898;6.054;2023-04-10T02:11:13;100615.91;;;8.10;72.48
59825;BME280;45703;50.898;6.054;2023-04-10T02:13:40;100619.19;;;8.12;72.30
59825;BME280;45703;50.898;6.054;2023-04-10T02:16:06;100614.66;;;8.06;72.37
59825;BME280;45703;50.898;6.054;2023-04-10T02:18:34;100618.72;;;8.08;72.09
59825;BME280;45703;50.898;6.054;2023-04-10T02:21:01;100609.31;;;8.06;72.83
59825;BME280;45703;50.898;6.054;2023-04-10T02:23:28;100615.44;;;8.00;72.93
59825;BME280;45703;50.898;6.054;2023-04-10T02:25:53;100617.06;;;8.01;72.89
59825;BME280;45703;50.898;6.054;2023-04-10T02:28:21;100614.59;;;7.99;72.82
59825;BME280;45703;50.898;6.054;2023-04-10T02:30:46;100608.03;;;7.95;73.32
59825;BME280;45703;50.898;6.054;2023-04-10T02:33:11;100608.41;;;7.92;73.19
59825;BME280;45703;50.898;6.054;2023-04-10T02:35:37;100607.16;;;7.88;73.28
59825;BME280;45703;50.898;6.054;2023-04-10T02:38:02;100603.44;;;7.83;73.33
59825;BME280;45703;50.898;6.054;2023-04-10T02:40:28;100591.94;;;7.76;73.89
59825;BME280;45703;50.898;6.054;2023-04-10T02:42:53;100594.44;;;7.77;73.86
59825;BME280;45703;50.898;6.054;2023-04-10T02:45:19;100594.81;;;7.74;74.08
59825;BME280;45703;50.898;6.054;2023-04-10T02:47:44;100583.75;;;7.71;74.26
59825;BME280;45703;50.898;6.054;2023-04-10T02:50:10;100582.88;;;7.64;74.51
59825;BME280;45703;50.898;6.054;2023-04-10T02:52:36;100578.34;;;7.58;74.59
59825;BME280;45703;50.898;6.054;2023-04-10T02:55:01;100575.44;;;7.53;75.33
59825;BME280;45703;50.898;6.054;2023-04-10T02:57:27;100582.78;;;7.51;75.36
59825;BME280;45703;50.898;6.054;2023-04-10T02:59:53;100586.47;;;7.50;75.41
59825;BME280;45703;50.898;6.054;2023-04-10T03:02:18;100577.88;;;7.48;75.31
59825;BME280;45703;50.898;6.054;2023-04-10T03:04:44;100577.63;;;7.43;75.25
59825;BME280;45703;50.898;6.054;2023-04-10T03:07:09;100566.09;;;7.36;75.37
59825;BME280;45703;50.898;6.054;2023-04-10T03:09:35;100570.41;;;7.37;75.45
59825;BME280;45703;50.898;6.054;2023-04-10T03:12:00;100567.31;;;7.33;75.57
59825;BME280;45703;50.898;6.054;2023-04-10T03:14:26;100558.28;;;7.28;76.18
59825;BME280;45703;50.898;6.054;2023-04-10T03:16:52;100552.72;;;7.23;76.09
59825;BME280;45703;50.898;6.054;2023-04-10T03:19:17;100555.84;;;7.26;76.16
59825;BME280;45703;50.898;6.054;2023-04-10T03:21:44;100559.06;;;7.22;76.47
59825;BME280;45703;50.898;6.054;2023-04-10T03:24:10;100554.13;;;7.19;76.40
59825;BME280;45703;50.898;6.054;2023-04-10T03:26:35;100569.66;;;7.22;76.28
59825;BME280;45703;50.898;6.054;2023-04-10T03:29:01;100564.56;;;7.20;75.90
59825;BME280;45703;50.898;6.054;2023-04-10T03:31:26;100564.97;;;7.17;75.99
59825;BME280;45703;50.898;6.054;2023-04-10T03:33:52;100555.91;;;7.12;76.09
59825;BME280;45703;50.898;6.054;2023-04-10T03:36:17;100546.09;;;7.12;76.08
59825;BME280;45703;50.898;6.054;2023-04-10T03:38:43;100538.72;;;7.08;76.43
59825;BME280;45703;50.898;6.054;2023-04-10T03:41:09;100533.41;;;7.08;76.77
59825;BME280;45703;50.898;6.054;2023-04-10T03:43:34;100544.03;;;7.08;77.02
59825;BME280;45703;50.898;6.054;2023-04-10T03:45:59;100542.38;;;7.07;77.09
59825;BME280;45703;50.898;6.054;2023-04-10T03:48:26;100532.53;;;7.01;77.14
59825;BME280;45703;50.898;6.054;2023-04-10T03:50:55;100531.53;;;7.02;77.16
59825;BME280;45703;50.898;6.054;2023-04-10T03:53:20;100529.63;;;6.96;77.59
59825;BME280;45703;50.898;6.054;2023-04-10T03:55:46;100545.19;;;6.99;77.51
59825;BME280;45703;50.898;6.054;2023-04-10T03:58:11;100524.09;;;6.91;77.54
59825;BME280;45703;50.898;6.054;2023-04-10T04:00:37;100523.88;;;6.93;77.68
59825;BME280;45703;50.898;6.054;2023-04-10T04:03:03;100527.75;;;6.90;77.36
59825;BME280;45703;50.898;6.054;2023-04-10T04:05:30;100523.47;;;6.89;77.76
59825;BME280;45703;50.898;6.054;2023-04-10T04:07:55;100524.00;;;6.85;78.01
59825;BME280;45703;50.898;6.054;2023-04-10T04:10:20;100515.22;;;6.84;77.93
59825;BME280;45703;50.898;6.054;2023-04-10T04:12:46;100516.59;;;6.80;77.90
59825;BME280;45703;50.898;6.054;2023-04-10T04:15:11;100514.34;;;6.77;77.97
59825;BME280;45703;50.898;6.054;2023-04-10T04:17:37;100517.19;;;6.76;77.76
59825;BME280;45703;50.898;6.054;2023-04-10T04:20:04;100518.38;;;6.73;77.79
59825;BME280;45703;50.898;6.054;2023-04-10T04:22:29;100515.31;;;6.70;77.54
59825;BME280;45703;50.898;6.054;2023-04-10T04:24:55;100525.72;;;6.71;77.87
59825;BME280;45703;50.898;6.054;2023-04-10T04:27:20;100522.25;;;6.71;77.56
59825;BME280;45703;50.898;6.054;2023-04-10T04:29:47;100525.28;;;6.68;77.52
59825;BME280;45703;50.898;6.054;2023-04-10T04:32:13;100505.00;;;6.60;77.63
59825;BME280;45703;50.898;6.054;2023-04-10T04:34:38;100521.16;;;6.65;77.56
59825;BME280;45703;50.898;6.054;2023-04-10T04:37:03;100509.28;;;6.61;77.76
59825;BME280;45703;50.898;6.054;2023-04-10T04:39:29;100509.69;;;6.58;77.72
59825;BME280;45703;50.898;6.054;2023-04-10T04:41:55;100509.84;;;6.57;77.98
59825;BME280;45703;50.898;6.054;2023-04-10T04:44:21;100505.56;;;6.56;77.91
59825;BME280;45703;50.898;6.054;2023-04-10T04:46:46;100498.59;;;6.55;78.18
59825;BME280;45703;50.898;6.054;2023-04-10T04:49:11;100499.56;;;6.47;78.04
59825;BME280;45703;50.898;6.054;2023-04-10T04:51:39;100492.63;;;6.46;77.77
59825;BME280;45703;50.898;6.054;2023-04-10T04:54:05;100496.91;;;6.47;77.79
59825;BME280;45703;50.898;6.054;2023-04-10T04:56:30;100497.94;;;6.46;77.97
59825;BME280;45703;50.898;6.054;2023-04-10T04:58:55;100492.09;;;6.36;77.96
59825;BME280;45703;50.898;6.054;2023-04-10T05:01:21;100494.41;;;6.39;77.75
59825;BME280;45703;50.898;6.054;2023-04-10T05:03:46;100505.63;;;6.41;78.09
59825;BME280;45703;50.898;6.054;2023-04-10T05:06:11;100505.00;;;6.39;78.03
59825;BME280;45703;50.898;6.054;2023-04-10T05:08:38;100509.28;;;6.40;78.42
59825;BME280;45703;50.898;6.054;2023-04-10T05:11:04;100505.81;;;6.40;78.40
59825;BME280;45703;50.898;6.054;2023-04-10T05:13:29;100503.78;;;6.42;78.32
59825;BME280;45703;50.898;6.054;2023-04-10T05:15:55;100507.44;;;6.41;78.43
59825;BME280;45703;50.898;6.054;2023-04-10T05:18:20;100504.00;;;6.40;78.46
59825;BME280;45703;50.898;6.054;2023-04-10T05:20:48;100507.53;;;6.47;78.51
59825;BME280;45703;50.898;6.054;2023-04-10T05:23:14;100504.03;;;6.47;78.66
59825;BME280;45703;50.898;6.054;2023-04-10T05:25:40;100502.00;;;6.49;78.65
59825;BME280;45703;50.898;6.054;2023-04-10T05:28:05;100503.09;;;6.54;78.71
59825;BME280;45703;50.898;6.054;2023-04-10T05:30:31;100498.44;;;6.56;78.50
59825;BME280;45703;50.898;6.054;2023-04-10T05:32:56;100495.41;;;6.59;78.50
59825;BME280;45703;50.898;6.054;2023-04-10T05:35:21;100494.25;;;6.68;78.27
59825;BME280;45703;50.898;6.054;2023-04-10T05:37:47;100501.47;;;6.74;78.19
59825;BME280;45703;50.898;6.054;2023-04-10T05:40:12;100491.53;;;6.83;78.30
59825;BME280;45703;50.898;6.054;2023-04-10T05:42:37;100495.91;;;6.90;77.84
59825;BME280;45703;50.898;6.054;2023-04-10T05:45:03;100483.91;;;6.94;77.73
59825;BME280;45703;50.898;6.054;2023-04-10T05:47:29;100488.03;;;7.03;77.99
59825;BME280;45703;50.898;6.054;2023-04-10T05:49:55;100477.91;;;7.13;77.92
59825;BME280;45703;50.898;6.054;2023-04-10T05:52:20;100473.06;;;7.23;77.93
59825;BME280;45703;50.898;6.054;2023-04-10T05:54:45;100482.75;;;7.37;78.08
59825;BME280;45703;50.898;6.054;2023-04-10T05:57:11;100477.56;;;7.50;77.99
59825;BME280;45703;50.898;6.054;2023-04-10T05:59:36;100475.97;;;7.62;77.82
59825;BME280;45703;50.898;6.054;2023-04-10T06:02:02;100473.38;;;7.75;77.27
59825;BME280;45703;50.898;6.054;2023-04-10T06:04:27;100467.50;;;7.86;76.88
59825;BME280;45703;50.898;6.054;2023-04-10T06:06:52;100482.28;;;8.01;76.48
59825;BME280;45703;50.898;6.054;2023-04-10T06:09:18;100483.16;;;8.15;75.81
59825;BME280;45703;50.898;6.054;2023-04-10T06:11:44;100493.69;;;8.29;75.45
59825;BME280;45703;50.898;6.054;2023-04-10T06:14:09;100486.75;;;8.41;74.81
59825;BME280;45703;50.898;6.054;2023-04-10T06:16:35;100469.38;;;8.52;74.64
59825;BME280;45703;50.898;6.054;2023-04-10T06:19:00;100482.31;;;8.67;74.33
59825;BME280;45703;50.898;6.054;2023-04-10T06:21:26;100477.59;;;8.82;73.29
59825;BME280;45703;50.898;6.054;2023-04-10T06:23:52;100475.16;;;8.94;73.32
59825;BME280;45703;50.898;6.054;2023-04-10T06:26:17;100465.72;;;9.04;73.10
59825;BME280;45703;50.898;6.054;2023-04-10T06:29:14;100473.28;;;9.20;72.65
59825;BME280;45703;50.898;6.054;2023-04-10T06:32:26;100464.06;;;9.29;72.30
59825;BME280;45703;50.898;6.054;2023-04-10T06:34:52;100470.00;;;9.44;71.62
59825;BME280;45703;50.898;6.054;2023-04-10T06:37:17;100466.88;;;9.54;71.74
59825;BME280;45703;50.898;6.054;2023-04-10T06:39:43;100459.91;;;9.59;71.25
59825;BME280;45703;50.898;6.054;2023-04-10T06:42:08;100461.91;;;9.70;71.17
59825;BME280;45703;50.898;6.054;2023-04-10T06:44:33;100472.53;;;9.83;71.51
59825;BME280;45703;50.898;6.054;2023-04-10T06:46:59;100467.78;;;9.92;70.18
59825;BME280;45703;50.898;6.054;2023-04-10T06:49:24;100463.69;;;10.02;70.39
59825;BME280;45703;50.898;6.054;2023-04-10T06:51:50;100468.16;;;10.08;70.98
59825;BME280;45703;50.898;6.054;2023-04-10T06:54:16;100467.28;;;10.20;70.27
59825;BME280;45703;50.898;6.054;2023-04-10T06:56:41;100469.91;;;10.27;70.09
59825;BME280;45703;50.898;6.054;2023-04-10T06:59:06;100472.91;;;10.43;70.22
59825;BME280;45703;50.898;6.054;2023-04-10T07:01:32;100465.91;;;10.49;69.79
59825;BME280;45703;50.898;6.054;2023-04-10T07:03:57;100458.84;;;10.61;69.88
59825;BME280;45703;50.898;6.054;2023-04-10T07:06:23;100470.63;;;10.78;69.60
59825;BME280;45703;50.898;6.054;2023-04-10T07:08:48;100449.56;;;10.88;69.62
59825;BME280;45703;50.898;6.054;2023-04-10T07:11:14;100458.69;;;11.05;69.41
59825;BME280;45703;50.898;6.054;2023-04-10T07:13:39;100452.19;;;11.19;68.78
59825;BME280;45703;50.898;6.054;2023-04-10T07:16:05;100449.63;;;11.30;68.65
59825;BME280;45703;50.898;6.054;2023-04-10T07:18:32;100454.38;;;11.46;68.63
59825;BME280;45703;50.898;6.054;2023-04-10T07:20:59;100433.31;;;11.56;68.07
59825;BME280;45703;50.898;6.054;2023-04-10T07:23:24;100442.75;;;11.76;67.41
59825;BME280;45703;50.898;6.054;2023-04-10T07:25:50;100437.25;;;11.89;66.95
59825;BME280;45703;50.898;6.054;2023-04-10T07:28:16;100420.66;;;11.99;66.55
59825;BME280;45703;50.898;6.054;2023-04-10T07:30:41;100420.88;;;12.15;66.88
59825;BME280;45703;50.898;6.054;2023-04-10T07:33:06;100428.03;;;12.33;66.78
59825;BME280;45703;50.898;6.054;2023-04-10T07:35:32;100425.16;;;12.46;66.59
59825;BME280;45703;50.898;6.054;2023-04-10T07:37:57;100430.31;;;12.59;66.14
59825;BME280;45703;50.898;6.054;2023-04-10T07:40:23;100427.88;;;12.69;66.27
59825;BME280;45703;50.898;6.054;2023-04-10T07:42:49;100417.28;;;12.74;63.45
59825;BME280;45703;50.898;6.054;2023-04-10T07:45:14;100415.69;;;12.84;64.50
59825;BME280;45703;50.898;6.054;2023-04-10T07:47:40;100413.06;;;12.96;66.29
59825;BME280;45703;50.898;6.054;2023-04-10T07:50:06;100401.63;;;13.00;65.19
59825;BME280;45703;50.898;6.054;2023-04-10T07:52:32;100396.97;;;13.07;63.84
59825;BME280;45703;50.898;6.054;2023-04-10T07:55:01;100393.38;;;13.13;62.16
59825;BME280;45703;50.898;6.054;2023-04-10T07:57:27;100397.91;;;13.24;65.69
59825;BME280;45703;50.898;6.054;2023-04-10T07:59:52;100400.22;;;13.32;64.20
59825;BME280;45703;50.898;6.054;2023-04-10T08:02:18;100399.84;;;13.40;64.43
59825;BME280;45703;50.898;6.054;2023-04-10T08:04:43;100384.34;;;13.42;63.70
59825;BME280;45703;50.898;6.054;2023-04-10T08:07:09;100381.66;;;13.53;62.57
59825;BME280;45703;50.898;6.054;2023-04-10T08:09:34;100383.97;;;13.61;62.80
59825;BME280;45703;50.898;6.054;2023-04-10T08:11:59;100378.00;;;13.71;62.66
59825;BME280;45703;50.898;6.054;2023-04-10T08:14:25;100373.06;;;13.79;63.89
59825;BME280;45703;50.898;6.054;2023-04-10T08:16:50;100367.34;;;13.87;64.13
59825;BME280;45703;50.898;6.054;2023-04-10T08:19:16;100361.47;;;13.90;61.81
59825;BME280;45703;50.898;6.054;2023-04-10T08:21:41;100352.59;;;13.90;62.44
59825;BME280;45703;50.898;6.054;2023-04-10T08:24:07;100360.53;;;13.96;61.46
59825;BME280;45703;50.898;6.054;2023-04-10T08:26:32;100352.69;;;13.95;62.79
59825;BME280;45703;50.898;6.054;2023-04-10T08:28:58;100347.41;;;14.00;62.03
59825;BME280;45703;50.898;6.054;2023-04-10T08:31:25;100337.25;;;14.02;59.54
59825;BME280;45703;50.898;6.054;2023-04-10T08:33:51;100335.41;;;14.02;61.84
59825;BME280;45703;50.898;6.054;2023-04-10T08:36:17;100330.47;;;14.11;62.55
59825;BME280;45703;50.898;6.054;2023-04-10T08:38:43;100336.25;;;14.19;61.30
59825;BME280;45703;50.898;6.054;2023-04-10T08:41:14;100346.47;;;14.34;61.12
59825;BME280;45703;50.898;6.054;2023-04-10T08:43:40;100348.59;;;14.48;62.74
59825;BME280;45703;50.898;6.054;2023-04-10T08:46:06;100339.31;;;14.55;60.43
59825;BME280;45703;50.898;6.054;2023-04-10T08:48:44;100341.41;;;14.70;60.19
59825;BME280;45703;50.898;6.054;2023-04-10T08:51:14;100339.22;;;14.83;57.99
59825;BME280;45703;50.898;6.054;2023-04-10T08:53:43;100340.50;;;14.97;61.70
59825;BME280;45703;50.898;6.054;2023-04-10T08:56:12;100341.78;;;15.11;59.89
59825;BME280;45703;50.898;6.054;2023-04-10T08:58:40;100332.72;;;15.17;60.72
59825;BME280;45703;50.898;6.054;2023-04-10T09:01:06;100338.84;;;15.29;58.35
59825;BME280;45703;50.898;6.054;2023-04-10T09:03:32;100344.91;;;15.41;60.76
59825;BME280;45703;50.898;6.054;2023-04-10T09:06:01;100348.22;;;15.48;60.04
59825;BME280;45703;50.898;6.054;2023-04-10T09:08:28;100346.81;;;15.62;60.46
59825;BME280;45703;50.898;6.054;2023-04-10T09:10:54;100343.16;;;15.73;60.43
59825;BME280;45703;50.898;6.054;2023-04-10T09:13:40;100343.03;;;15.85;60.62
59825;BME280;45703;50.898;6.054;2023-04-10T09:16:06;100344.50;;;15.97;59.38
59825;BME280;45703;50.898;6.054;2023-04-10T09:18:44;100324.38;;;16.04;60.66
59825;BME280;45703;50.898;6.054;2023-04-10T09:21:11;100335.53;;;16.13;56.98
59825;BME280;45703;50.898;6.054;2023-04-10T09:23:37;100331.50;;;16.15;59.12
59825;BME280;45703;50.898;6.054;2023-04-10T09:26:22;100334.22;;;16.20;60.39
59825;BME280;45703;50.898;6.054;2023-04-10T09:29:03;100326.19;;;16.25;59.97
59825;BME280;45703;50.898;6.054;2023-04-10T09:34:15;100322.06;;;16.39;60.62
59825;BME280;45703;50.898;6.054;2023-04-10T09:36:43;100313.19;;;16.44;55.67
59825;BME280;45703;50.898;6.054;2023-04-10T09:39:10;100317.03;;;16.53;57.18
59825;BME280;45703;50.898;6.054;2023-04-10T09:41:53;100302.84;;;16.67;59.90
59825;BME280;45703;50.898;6.054;2023-04-10T09:44:29;100299.97;;;16.79;58.92
59825;BME280;45703;50.898;6.054;2023-04-10T09:46:55;100296.75;;;16.82;56.38
59825;BME280;45703;50.898;6.054;2023-04-10T09:49:21;100304.88;;;16.87;55.19
59825;BME280;45703;50.898;6.054;2023-04-10T09:51:46;100291.16;;;16.88;54.84
59825;BME280;45703;50.898;6.054;2023-04-10T09:54:13;100283.84;;;16.89;54.94
59825;BME280;45703;50.898;6.054;2023-04-10T09:56:40;100281.22;;;16.99;55.88
59825;BME280;45703;50.898;6.054;2023-04-10T09:59:07;100288.78;;;17.02;55.12
59825;BME280;45703;50.898;6.054;2023-04-10T10:01:32;100285.84;;;17.03;55.35
59825;BME280;45703;50.898;6.054;2023-04-10T10:04:02;100268.28;;;17.06;54.49
59825;BME280;45703;50.898;6.054;2023-04-10T10:06:31;100266.97;;;17.08;55.00
59825;BME280;45703;50.898;6.054;2023-04-10T10:09:00;100268.91;;;17.13;55.21
59825;BME280;45703;50.898;6.054;2023-04-10T10:11:27;100260.81;;;17.13;57.27
59825;BME280;45703;50.898;6.054;2023-04-10T10:13:54;100262.69;;;17.12;54.99
59825;BME280;45703;50.898;6.054;2023-04-10T10:16:31;100256.50;;;17.12;56.43
59825;BME280;45703;50.898;6.054;2023-04-10T10:19:20;100256.44;;;17.07;55.77
59825;BME280;45703;50.898;6.054;2023-04-10T10:21:51;100251.03;;;17.02;52.89
59825;BME280;45703;50.898;6.054;2023-04-10T10:24:19;100231.06;;;17.03;55.55
59825;BME280;45703;50.898;6.054;2023-04-10T10:26:46;100220.81;;;17.00;54.31
59825;BME280;45703;50.898;6.054;2023-04-10T10:29:14;100226.19;;;17.00;55.44
59825;BME280;45703;50.898;6.054;2023-04-10T10:31:41;100223.47;;;16.95;53.54
59825;BME280;45703;50.898;6.054;2023-04-10T10:34:07;100217.50;;;16.88;55.20
59825;BME280;45703;50.898;6.054;2023-04-10T10:36:38;100226.69;;;16.92;56.29
59825;BME280;45703;50.898;6.054;2023-04-10T10:39:10;100229.41;;;16.92;54.96
59825;BME280;45703;50.898;6.054;2023-04-10T10:42:07;100229.69;;;16.95;56.66
59825;BME280;45703;50.898;6.054;2023-04-10T10:47:19;100223.50;;;17.05;56.48
59825;BME280;45703;50.898;6.054;2023-04-10T10:49:51;100213.81;;;17.09;52.79
59825;BME280;45703;50.898;6.054;2023-04-10T10:57:50;100180.97;;;17.22;53.17
59825;BME280;45703;50.898;6.054;2023-04-10T11:00:17;100194.81;;;17.40;53.86
59825;BME280;45703;50.898;6.054;2023-04-10T11:02:42;100180.81;;;17.48;54.95
59825;BME280;45703;50.898;6.054;2023-04-10T11:05:08;100162.72;;;17.53;53.97
59825;BME280;45703;50.898;6.054;2023-04-10T11:13:30;100173.56;;;17.73;53.60
59825;BME280;45703;50.898;6.054;2023-04-10T11:15:56;100168.16;;;17.83;53.64
59825;BME280;45703;50.898;6.054;2023-04-10T11:23:37;100147.88;;;18.01;54.14
59825;BME280;45703;50.898;6.054;2023-04-10T11:26:03;100156.78;;;18.06;54.21
59825;BME280;45703;50.898;6.054;2023-04-10T11:31:13;100141.94;;;18.14;54.96
59825;BME280;45703;50.898;6.054;2023-04-10T11:33:40;100138.41;;;18.18;51.99
59825;BME280;45703;50.898;6.054;2023-04-10T11:36:06;100134.09;;;18.22;52.58
59825;BME280;45703;50.898;6.054;2023-04-10T11:38:32;100118.16;;;18.26;54.55
59825;BME280;45703;50.898;6.054;2023-04-10T11:41:00;100123.84;;;18.29;52.12
59825;BME280;45703;50.898;6.054;2023-04-10T11:43:28;100118.66;;;18.33;53.48
59825;BME280;45703;50.898;6.054;2023-04-10T11:46:05;100113.25;;;18.43;54.01
59825;BME280;45703;50.898;6.054;2023-04-10T11:48:31;100108.09;;;18.46;52.19
59825;BME280;45703;50.898;6.054;2023-04-10T11:50:57;100112.38;;;18.57;52.39
59825;BME280;45703;50.898;6.054;2023-04-10T11:53:25;100101.53;;;18.62;51.31
59825;BME280;45703;50.898;6.054;2023-04-10T11:55:51;100098.56;;;18.69;53.09
59825;BME280;45703;50.898;6.054;2023-04-10T11:58:28;100098.25;;;18.75;53.41
59825;BME280;45703;50.898;6.054;2023-04-10T12:01:03;100094.41;;;18.86;53.60
59825;BME280;45703;50.898;6.054;2023-04-10T12:03:37;100099.78;;;18.96;53.25
59825;BME280;45703;50.898;6.054;2023-04-10T12:06:06;100104.06;;;19.02;49.75
59825;BME280;45703;50.898;6.054;2023-04-10T12:08:35;100109.44;;;19.07;50.34
59825;BME280;45703;50.898;6.054;2023-04-10T12:11:01;100091.59;;;19.06;50.30
59825;BME280;45703;50.898;6.054;2023-04-10T12:13:28;100098.13;;;19.00;46.21
59825;BME280;45703;50.898;6.054;2023-04-10T12:15:57;100098.66;;;19.02;48.67
59825;BME280;45703;50.898;6.054;2023-04-10T12:18:24;100086.75;;;19.03;48.98
59825;BME280;45703;50.898;6.054;2023-04-10T12:20:51;100099.19;;;19.04;48.19
59825;BME280;45703;50.898;6.054;2023-04-10T12:23:21;100078.91;;;19.01;47.49
59825;BME280;45703;50.898;6.054;2023-04-10T12:25:47;100075.91;;;19.03;47.97
59825;BME280;45703;50.898;6.054;2023-04-10T12:28:20;100078.59;;;19.08;52.31
59825;BME280;45703;50.898;6.054;2023-04-10T12:30:49;100085.34;;;19.15;52.02
59825;BME280;45703;50.898;6.054;2023-04-10T12:33:22;100075.03;;;19.17;48.84
59825;BME280;45703;50.898;6.054;2023-04-10T12:35:47;100064.44;;;19.26;48.51
59825;BME280;45703;50.898;6.054;2023-04-10T12:38:13;100057.41;;;19.25;49.53
59825;BME280;45703;50.898;6.054;2023-04-10T12:40:56;100061.97;;;19.29;51.17
59825;BME280;45703;50.898;6.054;2023-04-10T12:43:35;100043.84;;;19.30;51.86
59825;BME280;45703;50.898;6.054;2023-04-10T12:46:01;100047.38;;;19.25;47.95
59825;BME280;45703;50.898;6.054;2023-04-10T12:48:27;100047.16;;;19.22;47.99
59825;BME280;45703;50.898;6.054;2023-04-10T12:50:52;100045.81;;;19.14;49.58
59825;BME280;45703;50.898;6.054;2023-04-10T12:53:18;100070.25;;;19.04;47.74
59825;BME280;45703;50.898;6.054;2023-04-10T12:56:01;100053.19;;;19.04;51.29
59825;BME280;45703;50.898;6.054;2023-04-10T12:58:27;100043.13;;;19.09;50.63
59825;BME280;45703;50.898;6.054;2023-04-10T13:00:55;100033.63;;;19.22;47.76
59825;BME280;45703;50.898;6.054;2023-04-10T13:03:21;100030.25;;;19.35;49.05
59825;BME280;45703;50.898;6.054;2023-04-10T13:05:47;100026.84;;;19.53;50.88
59825;BME280;45703;50.898;6.054;2023-04-10T13:08:13;100021.91;;;19.60;48.94
59825;BME280;45703;50.898;6.054;2023-04-10T13:10:38;100017.53;;;19.64;49.22
59825;BME280;45703;50.898;6.054;2023-04-10T13:13:04;100010.03;;;19.56;48.09
59825;BME280;45703;50.898;6.054;2023-04-10T13:15:31;100005.44;;;19.56;46.73
59825;BME280;45703;50.898;6.054;2023-04-10T13:17:59;100011.06;;;19.60;49.76
59825;BME280;45703;50.898;6.054;2023-04-10T13:20:24;99998.63;;;19.59;49.65
59825;BME280;45703;50.898;6.054;2023-04-10T13:22:50;100001.91;;;19.56;47.52
59825;BME280;45703;50.898;6.054;2023-04-10T13:25:16;99992.75;;;19.52;48.51
59825;BME280;45703;50.898;6.054;2023-04-10T13:27:41;99985.22;;;19.44;46.98
59825;BME280;45703;50.898;6.054;2023-04-10T13:30:07;99979.34;;;19.37;47.67
59825;BME280;45703;50.898;6.054;2023-04-10T13:32:32;99971.78;;;19.34;46.41
59825;BME280;45703;50.898;6.054;2023-04-10T13:34:57;99969.63;;;19.36;47.93